Time;durP1;ratioP1;P1;durP2;ratioP2;P2;SDS_P1;SDS_P2;PMS_P1;PMS_P2;Temp;Humidity;BMP_temperature;BMP_pressure;BME280_temperature;BME280_humidity;BME280_pressure;Samples;Min_cycle;Max_cycle;Signal;HPM_P1;HPM_P2
2022/01/04 00:02:24;;;;;;;6.10;4.90;;;10.40;99.90;;;;;;5025317;28;20601;-68
2022/01/04 00:04:50;;;;;;;9.43;5.20;;;10.50;99.90;;;;;;5023155;28;20234;-68
2022/01/04 00:07:17;;;;;;;6.00;5.00;;;10.50;99.90;;;;;;5022350;28;20575;-67
2022/01/04 00:09:45;;;;;;;6.53;4.53;;;10.40;99.90;;;;;;5024856;28;22219;-68
2022/01/04 00:14:57;;;;;;;6.30;4.80;;;10.50;99.90;;;;;;5039346;28;22155;-67
2022/01/04 00:17:24;;;;;;;9.70;4.93;;;10.50;99.90;;;;;;5011234;28;20179;-69
2022/01/04 00:19:50;;;;;;;7.97;5.03;;;10.60;99.90;;;;;;5041881;28;20241;-69
2022/01/04 00:22:16;;;;;;;9.37;5.23;;;10.70;99.90;;;;;;5024134;28;20664;-69
2022/01/04 00:24:43;;;;;;;7.20;5.03;;;10.70;99.90;;;;;;5027517;28;20647;-68
2022/01/04 00:27:09;;;;;;;7.17;5.03;;;10.80;99.90;;;;;;5046855;28;20509;-69
2022/01/04 00:29:35;;;;;;;9.90;5.10;;;10.80;99.90;;;;;;5025566;28;20725;-69
2022/01/04 00:32:02;;;;;;;6.97;4.97;;;10.80;99.90;;;;;;5040999;28;20188;-69
2022/01/04 00:34:29;;;;;;;7.80;5.80;;;10.80;99.90;;;;;;5035141;28;20693;-69
2022/01/04 00:36:56;;;;;;;8.20;5.27;;;10.80;99.90;;;;;;5041407;28;20257;-69
2022/01/04 00:39:22;;;;;;;6.33;5.20;;;10.90;99.90;;;;;;5019118;28;20197;-69
2022/01/04 00:41:49;;;;;;;7.43;5.37;;;11.00;99.90;;;;;;5047335;28;20187;-69
2022/01/04 00:44:15;;;;;;;8.20;5.50;;;11.00;99.90;;;;;;5024200;28;20195;-69
2022/01/04 00:46:42;;;;;;;7.70;5.37;;;11.10;99.90;;;;;;5042108;28;20180;-69
2022/01/04 00:49:11;;;;;;;7.23;4.97;;;11.10;99.90;;;;;;5026808;28;20238;-69
2022/01/04 00:51:48;;;;;;;10.40;5.63;;;11.10;99.90;;;;;;5010610;28;20230;-69
2022/01/04 00:54:16;;;;;;;9.93;4.90;;;11.10;99.90;;;;;;5039662;28;20191;-69
2022/01/04 00:56:44;;;;;;;10.10;4.73;;;11.10;99.90;;;;;;5028624;28;20193;-69
2022/01/04 00:59:11;;;;;;;6.43;5.10;;;11.00;99.90;;;;;;5044070;28;20190;-69
2022/01/04 01:01:38;;;;;;;8.27;4.90;;;10.90;99.90;;;;;;5027928;28;20250;-70
2022/01/04 01:04:07;;;;;;;5.87;4.73;;;10.90;99.90;;;;;;5045665;28;20545;-70
2022/01/04 01:06:34;;;;;;;6.47;5.50;;;10.80;99.90;;;;;;5014618;28;20277;-70
2022/01/04 01:09:01;;;;;;;8.93;6.43;;;10.80;99.90;;;;;;5032626;28;20231;-68
2022/01/04 01:11:28;;;;;;;6.13;5.33;;;10.80;99.90;;;;;;5022189;28;20183;-68
2022/01/04 01:13:54;;;;;;;8.43;4.93;;;10.70;99.90;;;;;;5025620;28;20572;-68
2022/01/04 01:16:20;;;;;;;8.00;5.63;;;10.70;99.90;;;;;;5010080;28;20917;-68
2022/01/04 01:18:48;;;;;;;9.03;5.87;;;10.70;99.90;;;;;;5018822;28;20708;-68
2022/01/04 01:21:15;;;;;;;10.77;5.40;;;10.80;99.90;;;;;;5036604;28;20617;-69
2022/01/04 01:23:42;;;;;;;11.90;6.00;;;10.80;99.90;;;;;;5026613;28;20532;-68
2022/01/04 01:26:09;;;;;;;9.27;5.90;;;10.90;99.90;;;;;;5039567;28;20222;-68
2022/01/04 01:28:37;;;;;;;8.00;5.10;;;10.90;99.90;;;;;;5009010;28;20270;-68
2022/01/04 01:31:03;;;;;;;10.90;5.70;;;10.90;99.90;;;;;;5026557;28;20198;-68
2022/01/04 01:33:30;;;;;;;8.13;5.97;;;10.90;99.90;;;;;;5020030;28;20207;-68
2022/01/04 01:35:58;;;;;;;6.57;5.17;;;11.00;99.90;;;;;;5026863;28;20219;-69
2022/01/04 01:38:25;;;;;;;12.10;6.17;;;11.00;99.90;;;;;;5011950;28;20183;-69
2022/01/04 01:40:53;;;;;;;8.23;6.17;;;11.00;99.90;;;;;;5026765;28;20230;-70
2022/01/04 01:43:20;;;;;;;10.67;5.40;;;11.00;99.90;;;;;;5015005;28;20195;-70
2022/01/04 01:45:47;;;;;;;11.33;5.70;;;11.10;99.90;;;;;;5017549;28;20196;-70
2022/01/04 01:48:13;;;;;;;9.87;5.63;;;11.10;99.90;;;;;;5044101;28;20214;-69
2022/01/04 01:50:40;;;;;;;7.80;5.67;;;11.10;99.90;;;;;;5029969;28;20326;-70
2022/01/04 01:53:07;;;;;;;12.30;6.10;;;11.10;99.90;;;;;;5022952;28;20650;-69
2022/01/04 01:55:34;;;;;;;7.73;5.40;;;11.10;99.90;;;;;;5023060;28;20193;-69
2022/01/04 01:58:01;;;;;;;7.27;5.37;;;11.10;99.90;;;;;;5041792;28;20186;-68
2022/01/04 02:00:29;;;;;;;7.30;5.53;;;11.20;99.90;;;;;;5018115;28;20192;-68
2022/01/04 02:02:57;;;;;;;9.97;5.23;;;11.20;99.90;;;;;;5029108;28;20212;-67
2022/01/04 02:05:23;;;;;;;9.43;5.30;;;11.20;99.90;;;;;;5024666;28;20195;-68
2022/01/04 02:07:51;;;;;;;8.07;5.40;;;11.20;99.90;;;;;;5017808;28;20314;-67
2022/01/04 02:10:17;;;;;;;10.30;5.73;;;11.20;99.90;;;;;;5016297;28;20204;-68
2022/01/04 02:12:49;;;;;;;11.60;5.30;;;11.30;99.90;;;;;;5020056;28;20196;-67
2022/01/04 02:15:23;;;;;;;13.33;5.70;;;11.30;99.90;;;;;;5026309;28;20529;-67
2022/01/04 02:17:51;;;;;;;10.00;5.20;;;11.30;99.90;;;;;;5001318;28;20226;-68
2022/01/04 02:20:19;;;;;;;8.97;5.27;;;11.30;99.90;;;;;;5039840;28;20520;-69
2022/01/04 02:22:46;;;;;;;7.47;4.83;;;11.30;99.90;;;;;;5039647;28;20195;-69
2022/01/04 02:25:13;;;;;;;7.63;4.90;;;11.30;99.90;;;;;;5017096;28;20187;-69
2022/01/04 02:27:41;;;;;;;8.23;4.80;;;11.30;99.90;;;;;;5018269;28;20220;-69
2022/01/04 02:30:14;;;;;;;9.90;5.33;;;11.30;99.90;;;;;;5024655;28;20231;-69
2022/01/04 02:32:42;;;;;;;9.53;5.00;;;11.40;99.90;;;;;;5040361;28;20179;-69
2022/01/04 02:35:11;;;;;;;10.47;4.80;;;11.40;99.90;;;;;;5038118;28;20595;-67
2022/01/04 02:37:37;;;;;;;12.73;5.17;;;11.40;99.90;;;;;;5023663;28;20617;-67
2022/01/04 02:40:05;;;;;;;6.10;4.83;;;11.30;99.90;;;;;;5037784;28;20191;-68
2022/01/04 02:42:31;;;;;;;16.03;5.13;;;11.40;99.90;;;;;;5039601;28;20207;-68
2022/01/04 02:45:00;;;;;;;10.80;4.83;;;11.40;99.90;;;;;;5018607;28;20199;-68
2022/01/04 02:47:28;;;;;;;10.87;4.83;;;11.40;99.90;;;;;;5018152;28;20211;-68
2022/01/04 02:49:56;;;;;;;10.73;4.77;;;11.40;99.90;;;;;;5016956;28;20208;-68
2022/01/04 02:52:22;;;;;;;9.40;4.90;;;11.40;99.90;;;;;;5016182;28;20359;-68
2022/01/04 02:54:48;;;;;;;8.70;4.97;;;11.40;99.90;;;;;;5020627;28;20247;-67
2022/01/04 02:57:15;;;;;;;12.27;4.77;;;11.40;99.90;;;;;;5036193;28;20192;-69
2022/01/04 02:59:41;;;;;;;8.13;4.93;;;11.40;99.90;;;;;;5021033;28;20192;-69
2022/01/04 03:02:07;;;;;;;6.37;4.07;;;11.40;99.90;;;;;;5021051;28;20294;-69
2022/01/04 03:04:34;;;;;;;10.63;4.87;;;11.40;99.90;;;;;;5026796;28;20188;-68
2022/01/04 03:07:02;;;;;;;7.30;4.30;;;11.40;99.90;;;;;;5023687;28;20663;-66
2022/01/04 03:09:28;;;;;;;8.07;3.83;;;11.40;99.90;;;;;;5041454;28;20562;-67
2022/01/04 03:11:56;;;;;;;7.80;4.70;;;11.40;99.90;;;;;;5044238;28;20211;-67
2022/01/04 03:14:23;;;;;;;8.00;4.63;;;11.40;99.90;;;;;;5038254;28;20183;-66
2022/01/04 03:16:49;;;;;;;10.17;4.80;;;11.50;99.90;;;;;;5036626;28;20227;-67
2022/01/04 03:19:15;;;;;;;11.87;4.03;;;11.50;99.90;;;;;;5027160;28;20192;-67
2022/01/04 03:21:44;;;;;;;7.73;4.40;;;11.50;99.90;;;;;;5030843;28;20181;-67
2022/01/04 03:24:14;;;;;;;7.77;4.03;;;11.50;99.90;;;;;;5013753;28;20195;-66
2022/01/04 03:26:42;;;;;;;8.63;4.30;;;11.60;99.90;;;;;;5021169;28;20233;-67
2022/01/04 03:29:11;;;;;;;11.93;4.67;;;11.60;99.90;;;;;;5020170;28;20223;-67
2022/01/04 03:31:38;;;;;;;16.73;4.50;;;11.60;99.90;;;;;;5021858;28;20242;-67
2022/01/04 03:34:05;;;;;;;8.97;4.27;;;11.60;99.90;;;;;;5018488;28;20237;-67
2022/01/04 03:36:34;;;;;;;7.87;4.10;;;11.60;99.90;;;;;;5018636;28;20221;-67
2022/01/04 03:39:06;;;;;;;8.13;3.83;;;11.60;99.90;;;;;;5020276;28;20183;-67
2022/01/04 03:41:37;;;;;;;10.00;4.40;;;11.60;99.90;;;;;;5033140;28;20187;-67
2022/01/04 03:44:07;;;;;;;9.00;4.30;;;11.60;99.90;;;;;;5023886;28;20261;-67
2022/01/04 03:46:34;;;;;;;7.03;4.50;;;11.70;99.90;;;;;;5018584;28;20199;-67
2022/01/04 03:49:00;;;;;;;8.90;4.20;;;11.70;99.90;;;;;;5034380;28;20215;-68
2022/01/04 03:51:26;;;;;;;8.63;4.00;;;11.70;99.90;;;;;;5034876;28;20192;-68
2022/01/04 03:53:53;;;;;;;9.90;4.33;;;11.70;99.90;;;;;;5017862;28;20315;-67
2022/01/04 03:56:19;;;;;;;7.37;3.73;;;11.70;99.90;;;;;;5014419;28;20466;-68
2022/01/04 03:58:46;;;;;;;13.03;3.90;;;11.70;99.90;;;;;;5035598;28;20290;-71
2022/01/04 04:01:12;;;;;;;8.43;4.37;;;11.70;99.90;;;;;;5022097;28;20270;-71
2022/01/04 04:03:38;;;;;;;7.60;3.97;;;11.70;99.90;;;;;;5033536;28;20612;-70
2022/01/04 04:06:05;;;;;;;8.50;3.80;;;11.70;99.90;;;;;;5003032;28;20317;-71
2022/01/04 04:08:31;;;;;;;10.90;3.77;;;11.70;99.90;;;;;;5035379;28;20208;-69
2022/01/04 04:10:57;;;;;;;8.17;3.63;;;11.70;99.90;;;;;;5037543;28;20218;-68
2022/01/04 04:13:24;;;;;;;8.03;3.90;;;11.70;99.90;;;;;;5020117;28;20708;-68
2022/01/04 04:15:50;;;;;;;9.03;4.00;;;11.70;99.90;;;;;;5027363;28;20334;-68
2022/01/04 04:18:17;;;;;;;7.07;3.57;;;11.70;99.90;;;;;;5035883;28;20199;-68
2022/01/04 04:20:44;;;;;;;11.47;3.77;;;11.70;99.90;;;;;;5024668;28;20195;-70
2022/01/04 04:23:13;;;;;;;5.83;3.20;;;11.70;99.90;;;;;;5030971;28;20222;-68
2022/01/04 04:25:41;;;;;;;11.90;4.30;;;11.70;99.90;;;;;;5024809;28;20191;-68
2022/01/04 04:28:08;;;;;;;9.03;3.83;;;11.70;99.90;;;;;;5043674;28;20199;-68
2022/01/04 04:30:35;;;;;;;7.80;3.83;;;11.70;99.90;;;;;;5009412;28;20257;-68
2022/01/04 04:33:02;;;;;;;6.93;3.30;;;11.80;99.90;;;;;;5042775;28;20195;-68
2022/01/04 04:35:30;;;;;;;6.47;3.40;;;11.70;99.90;;;;;;5031303;28;20275;-68
2022/01/04 04:37:59;;;;;;;5.93;3.40;;;11.80;99.90;;;;;;5025844;28;20848;-69
2022/01/04 04:40:26;;;;;;;7.33;3.27;;;11.80;99.90;;;;;;5048518;28;20737;-69
2022/01/04 04:42:52;;;;;;;8.23;3.47;;;11.80;99.90;;;;;;5027148;28;20907;-67
2022/01/04 04:45:19;;;;;;;7.10;3.03;;;11.80;99.90;;;;;;5031407;28;20196;-67
2022/01/04 04:47:45;;;;;;;8.27;3.20;;;11.80;99.90;;;;;;5038839;28;20187;-68
2022/01/04 04:50:12;;;;;;;4.87;3.10;;;11.80;99.90;;;;;;5027782;28;20226;-71
2022/01/04 04:52:38;;;;;;;7.60;3.37;;;11.80;99.90;;;;;;5027734;28;20957;-69
2022/01/04 04:55:06;;;;;;;10.47;3.07;;;11.80;99.90;;;;;;5036427;28;20215;-68
2022/01/04 04:57:34;;;;;;;9.17;3.67;;;11.80;99.90;;;;;;5015364;28;20293;-68
2022/01/04 05:00:00;;;;;;;8.23;3.43;;;11.80;99.90;;;;;;5032138;28;20552;-68
2022/01/04 05:02:27;;;;;;;9.90;3.77;;;11.90;99.90;;;;;;5030678;28;20215;-68
2022/01/04 05:04:53;;;;;;;7.60;3.60;;;11.90;99.90;;;;;;5056557;28;20269;-68
2022/01/04 05:07:20;;;;;;;8.47;3.40;;;11.90;99.90;;;;;;5019456;28;20967;-68
2022/01/04 05:09:46;;;;;;;10.73;3.00;;;12.00;99.90;;;;;;5019911;28;20613;-68
2022/01/04 05:12:13;;;;;;;5.93;3.33;;;12.00;99.90;;;;;;5052069;28;20181;-68
2022/01/04 05:14:45;;;;;;;10.50;3.27;;;12.00;99.90;;;;;;5027237;28;20195;-68
2022/01/04 05:17:12;;;;;;;7.33;3.23;;;12.00;99.90;;;;;;5021068;28;20183;-67
2022/01/04 05:19:38;;;;;;;10.23;3.50;;;12.00;99.90;;;;;;5038834;28;20195;-67
2022/01/04 05:22:05;;;;;;;10.83;3.13;;;12.00;99.90;;;;;;5047169;28;20262;-67
2022/01/04 05:24:31;;;;;;;8.10;3.13;;;12.00;99.90;;;;;;5033863;28;20657;-67
2022/01/04 05:26:58;;;;;;;7.30;3.10;;;12.00;99.90;;;;;;5020967;28;20570;-66
2022/01/04 05:29:25;;;;;;;9.47;2.80;;;12.00;99.90;;;;;;5027893;28;20234;-67
2022/01/04 05:31:51;;;;;;;8.63;3.70;;;12.00;99.90;;;;;;5036456;28;20191;-67
2022/01/04 05:34:17;;;;;;;6.90;3.23;;;12.00;99.90;;;;;;5035748;28;20302;-68
2022/01/04 05:36:44;;;;;;;8.37;3.10;;;12.00;99.90;;;;;;5033000;28;20706;-68
2022/01/04 05:39:10;;;;;;;6.13;2.80;;;12.00;99.90;;;;;;5036665;28;20684;-68
2022/01/04 05:41:36;;;;;;;6.33;2.80;;;12.00;99.90;;;;;;5025373;28;20187;-68
2022/01/04 05:44:03;;;;;;;10.50;2.83;;;12.00;99.90;;;;;;5028114;28;20284;-69
2022/01/04 05:46:30;;;;;;;7.07;2.90;;;12.00;99.90;;;;;;5042817;28;20210;-69
2022/01/04 05:48:56;;;;;;;9.23;2.83;;;12.10;99.90;;;;;;5022511;28;20202;-69
2022/01/04 05:51:23;;;;;;;6.90;2.70;;;12.10;99.90;;;;;;5052810;28;20191;-70
2022/01/04 05:53:49;;;;;;;6.03;2.60;;;12.10;99.90;;;;;;5050840;28;20175;-69
2022/01/04 05:56:15;;;;;;;3.83;2.40;;;12.10;99.90;;;;;;5037685;28;20714;-70
2022/01/04 05:58:42;;;;;;;8.80;2.63;;;12.10;99.90;;;;;;5038847;28;20184;-69
2022/01/04 06:01:08;;;;;;;7.33;2.77;;;12.10;99.90;;;;;;5033114;28;20258;-68
2022/01/04 06:03:35;;;;;;;7.07;2.77;;;12.10;99.90;;;;;;5042458;28;20696;-68
2022/01/04 06:06:01;;;;;;;9.50;4.07;;;12.10;99.90;;;;;;5027093;28;20196;-69
2022/01/04 06:08:34;;;;;;;4.60;3.00;;;12.10;99.90;;;;;;5035560;28;20203;-68
2022/01/04 06:11:02;;;;;;;6.97;2.80;;;12.10;99.90;;;;;;5058742;28;20660;-68
2022/01/04 06:16:13;;;;;;;5.27;2.90;;;12.20;99.90;;;;;;5021988;28;20186;-68
2022/01/04 06:18:41;;;;;;;8.67;2.77;;;12.20;99.90;;;;;;5040711;28;20255;-68
2022/01/04 06:21:10;;;;;;;5.43;2.37;;;12.20;99.90;;;;;;5033137;28;20202;-68
2022/01/04 06:23:38;;;;;;;7.03;3.43;;;12.20;99.90;;;;;;5034435;28;20198;-68
2022/01/04 06:26:05;;;;;;;9.87;3.37;;;12.30;99.90;;;;;;5026062;28;20370;-68
2022/01/04 06:28:32;;;;;;;7.70;3.13;;;12.30;99.90;;;;;;5056159;28;20568;-69
2022/01/04 06:30:59;;;;;;;5.63;2.40;;;12.30;99.90;;;;;;5031649;28;20211;-68
2022/01/04 06:33:25;;;;;;;7.33;2.90;;;12.30;99.90;;;;;;5037732;28;20190;-68
2022/01/04 06:35:51;;;;;;;11.10;2.87;;;12.30;99.90;;;;;;5014142;28;20581;-68
2022/01/04 06:38:18;;;;;;;7.03;2.80;;;12.40;99.90;;;;;;5021668;28;20226;-69
2022/01/04 06:40:44;;;;;;;6.73;2.90;;;12.40;99.90;;;;;;5018536;28;20188;-68
2022/01/04 06:43:11;;;;;;;9.27;3.23;;;12.40;99.90;;;;;;5010269;28;20194;-69
2022/01/04 06:45:38;;;;;;;6.97;3.00;;;12.50;99.90;;;;;;5014661;28;20278;-68
2022/01/04 06:48:05;;;;;;;6.37;2.90;;;12.50;99.90;;;;;;5053861;28;20245;-68
2022/01/04 06:50:32;;;;;;;4.40;2.50;;;12.60;99.90;;;;;;5031851;28;20258;-68
2022/01/04 06:52:58;;;;;;;5.50;3.03;;;12.60;99.90;;;;;;5038818;28;20195;-68
2022/01/04 06:55:24;;;;;;;5.70;2.27;;;12.60;99.90;;;;;;5028273;28;20210;-68
2022/01/04 06:57:51;;;;;;;4.37;2.40;;;12.70;99.90;;;;;;5047483;28;20300;-67
2022/01/04 07:00:17;;;;;;;5.30;2.47;;;12.70;99.90;;;;;;5037144;28;20187;-66
2022/01/04 07:02:44;;;;;;;3.60;2.20;;;12.70;99.90;;;;;;5036371;28;20764;-67
2022/01/04 07:05:11;;;;;;;5.07;2.37;;;12.80;99.90;;;;;;5043951;28;20287;-66
2022/01/04 07:07:37;;;;;;;5.97;2.73;;;12.80;99.90;;;;;;5054815;28;20517;-66
2022/01/04 07:10:04;;;;;;;8.20;2.40;;;12.80;99.90;;;;;;5056715;28;20250;-66
2022/01/04 07:12:31;;;;;;;4.90;2.27;;;12.90;99.90;;;;;;5028481;28;20199;-66
2022/01/04 07:14:57;;;;;;;4.53;2.37;;;12.90;99.90;;;;;;5041443;28;20732;-64
2022/01/04 07:17:23;;;;;;;9.00;2.20;;;13.00;99.90;;;;;;5022010;28;20734;-65
2022/01/04 07:19:49;;;;;;;4.03;2.03;;;13.00;99.90;;;;;;5027706;28;20821;-65
2022/01/04 07:22:16;;;;;;;3.53;1.87;;;13.00;99.90;;;;;;5052957;28;20657;-65
2022/01/04 07:24:42;;;;;;;4.13;1.70;;;13.00;99.90;;;;;;5030521;28;20196;-65
2022/01/04 07:27:09;;;;;;;6.90;2.00;;;13.00;99.90;;;;;;5031798;28;20195;-65
2022/01/04 07:29:35;;;;;;;4.30;2.00;;;13.00;99.90;;;;;;5032262;28;20211;-65
2022/01/04 07:32:02;;;;;;;6.10;1.80;;;13.10;99.90;;;;;;5024776;28;20191;-65
2022/01/04 07:34:28;;;;;;;4.30;1.90;;;13.00;99.90;;;;;;5026930;28;20187;-66
2022/01/04 07:36:55;;;;;;;7.77;1.93;;;13.00;99.90;;;;;;5027503;28;20195;-67
2022/01/04 07:39:21;;;;;;;4.17;1.87;;;13.10;99.90;;;;;;5020471;28;20192;-67
2022/01/04 07:41:47;;;;;;;5.77;2.03;;;13.10;99.90;;;;;;5038539;28;20663;-67
2022/01/04 07:44:14;;;;;;;5.00;2.67;;;13.10;99.90;;;;;;5026544;28;20200;-66
2022/01/04 07:46:40;;;;;;;6.10;2.17;;;13.10;99.90;;;;;;5038378;28;21046;-66
2022/01/04 07:49:06;;;;;;;5.63;1.80;;;13.20;99.90;;;;;;5015882;28;20262;-66
2022/01/04 07:51:33;;;;;;;4.03;1.80;;;13.20;99.90;;;;;;5024572;28;20183;-66
2022/01/04 07:53:59;;;;;;;8.47;2.30;;;13.30;99.90;;;;;;5043059;28;20238;-65
2022/01/04 07:56:25;;;;;;;8.17;2.77;;;13.30;99.90;;;;;;5054953;28;20266;-69
2022/01/04 07:58:54;;;;;;;5.47;2.40;;;13.30;99.90;;;;;;5056394;28;20210;-69
2022/01/04 08:01:21;;;;;;;6.40;2.17;;;13.30;99.90;;;;;;5027655;28;20176;-68
2022/01/04 08:03:47;;;;;;;5.03;2.00;;;13.20;99.90;;;;;;5019286;28;20256;-69
2022/01/04 08:06:13;;;;;;;4.40;2.37;;;13.20;99.90;;;;;;5004947;28;20424;-69
2022/01/04 08:08:39;;;;;;;6.20;2.17;;;13.10;99.90;;;;;;5022792;28;20679;-69
2022/01/04 08:11:06;;;;;;;6.43;2.67;;;13.20;99.90;;;;;;5051458;28;20204;-69
2022/01/04 08:13:33;;;;;;;8.30;2.67;;;13.20;99.90;;;;;;5035537;28;20202;-68
2022/01/04 08:16:00;;;;;;;7.97;2.43;;;13.30;99.90;;;;;;5027922;28;20254;-69
2022/01/04 08:18:26;;;;;;;9.10;2.67;;;13.40;99.90;;;;;;5049480;28;20191;-70
2022/01/04 08:20:56;;;;;;;4.77;2.30;;;13.50;99.90;;;;;;5030086;28;20663;-70
2022/01/04 08:23:23;;;;;;;8.23;2.37;;;13.60;99.90;;;;;;5040919;28;20274;-68
2022/01/04 08:25:50;;;;;;;5.20;2.13;;;13.70;99.90;;;;;;5030945;28;20720;-70
2022/01/04 08:28:17;;;;;;;6.73;2.57;;;13.80;99.90;;;;;;5045027;28;20271;-68
2022/01/04 08:30:43;;;;;;;5.70;2.33;;;13.80;99.90;;;;;;5048168;28;20207;-71
2022/01/04 08:33:11;;;;;;;6.07;2.47;;;13.80;99.90;;;;;;5033086;28;20285;-70
2022/01/04 08:35:40;;;;;;;6.13;2.30;;;13.80;99.90;;;;;;5026763;28;20206;-70
2022/01/04 08:38:08;;;;;;;6.43;2.47;;;13.80;99.90;;;;;;5029129;28;20179;-70
2022/01/04 08:40:35;;;;;;;10.07;2.40;;;13.70;99.90;;;;;;5053954;28;20683;-70
2022/01/04 08:43:01;;;;;;;5.40;1.93;;;13.70;99.90;;;;;;5033632;28;20203;-70
2022/01/04 08:45:28;;;;;;;7.70;2.40;;;13.70;99.90;;;;;;5005592;28;20191;-70
2022/01/04 08:47:55;;;;;;;5.37;2.37;;;13.70;99.90;;;;;;5027584;28;20282;-71
2022/01/04 08:50:22;;;;;;;9.70;2.30;;;13.70;99.90;;;;;;5027206;28;20225;-70
2022/01/04 08:52:54;;;;;;;6.90;2.10;;;13.70;99.90;;;;;;5043463;28;20768;-70
2022/01/04 08:55:28;;;;;;;6.37;2.20;;;13.80;99.90;;;;;;5026448;28;20198;-70
2022/01/04 08:57:55;;;;;;;11.13;2.87;;;13.80;99.90;;;;;;5026336;28;20180;-70
2022/01/04 09:00:22;;;;;;;9.13;2.10;;;13.90;99.90;;;;;;5041900;28;20214;-70
2022/01/04 09:02:48;;;;;;;6.00;2.10;;;13.90;99.90;;;;;;5009717;28;20692;-70
2022/01/04 09:05:15;;;;;;;7.80;2.23;;;13.80;99.90;;;;;;5008511;28;20192;-70
2022/01/04 09:07:42;;;;;;;6.23;2.17;;;13.70;99.90;;;;;;5007379;28;20243;-70
2022/01/04 09:10:08;;;;;;;11.13;2.17;;;13.60;99.90;;;;;;5050208;28;20261;-69
2022/01/04 09:12:48;;;;;;;9.33;2.20;;;13.60;99.90;;;;;;5032680;28;20687;-69
2022/01/04 09:20:53;;;;;;;4.70;2.07;;;13.50;99.90;;;;;;5033653;28;20187;-70
2022/01/04 09:23:21;;;;;;;7.87;2.40;;;13.50;99.90;;;;;;5022261;28;20188;-69
2022/01/04 09:25:53;;;;;;;5.20;2.03;;;13.50;99.90;;;;;;5047889;28;20183;-70
2022/01/04 09:28:21;;;;;;;2.80;1.63;;;13.50;99.90;;;;;;5044232;28;20184;-70
2022/01/04 09:30:51;;;;;;;3.67;1.90;;;13.50;99.90;;;;;;5025765;28;20219;-69
2022/01/04 09:33:20;;;;;;;3.40;1.63;;;13.50;99.90;;;;;;5050238;28;20182;-70
2022/01/04 09:35:49;;;;;;;4.20;1.63;;;13.50;99.90;;;;;;5044717;28;20532;-70
2022/01/04 09:38:18;;;;;;;3.37;1.47;;;13.60;99.90;;;;;;5035760;28;20213;-70
2022/01/04 09:40:45;;;;;;;5.40;1.53;;;13.70;99.90;;;;;;5013859;28;20379;-69
2022/01/04 09:43:16;;;;;;;5.20;1.70;;;13.70;99.90;;;;;;5039047;28;20195;-70
2022/01/04 09:45:43;;;;;;;3.63;1.53;;;13.80;99.90;;;;;;5054749;28;20403;-70
2022/01/04 09:48:10;;;;;;;3.80;1.57;;;13.80;99.90;;;;;;5013204;28;20840;-70
2022/01/04 09:50:40;;;;;;;6.00;1.90;;;13.90;99.90;;;;;;5032496;28;20754;-70
2022/01/04 09:53:12;;;;;;;6.57;2.03;;;13.80;99.90;;;;;;5028131;28;20190;-70
2022/01/04 09:55:41;;;;;;;3.97;1.60;;;13.80;99.90;;;;;;5021350;28;20346;-70
2022/01/04 09:58:07;;;;;;;5.60;1.43;;;13.80;99.90;;;;;;5047787;28;20318;-69
2022/01/04 10:00:34;;;;;;;4.17;1.73;;;13.70;99.90;;;;;;5054279;28;20257;-70
2022/01/04 10:03:16;;;;;;;5.63;1.27;;;13.80;99.90;;;;;;5041138;28;20318;-70
2022/01/04 10:05:44;;;;;;;4.13;1.50;;;13.80;99.90;;;;;;5055005;28;20195;-69
2022/01/04 10:08:14;;;;;;;4.90;1.40;;;13.80;99.90;;;;;;5036582;28;21163;-69
2022/01/04 10:10:46;;;;;;;5.33;1.67;;;13.90;99.90;;;;;;5017616;28;20221;-70
2022/01/04 10:13:15;;;;;;;2.23;1.50;;;13.80;99.90;;;;;;5026628;28;20222;-70
2022/01/04 10:15:48;;;;;;;10.87;2.07;;;13.80;99.90;;;;;;5043049;28;20184;-69
2022/01/04 10:18:16;;;;;;;4.30;1.83;;;14.00;99.90;;;;;;5027158;28;20191;-70
2022/01/04 10:21:10;;;;;;;4.07;1.47;;;14.10;99.90;;;;;;5012666;28;20915;-70
2022/01/04 10:23:55;;;;;;;6.17;1.40;;;14.10;99.90;;;;;;5029078;28;20187;-70
2022/01/04 10:26:37;;;;;;;4.97;1.60;;;14.00;99.90;;;;;;5022657;28;20200;-70
2022/01/04 10:29:22;;;;;;;3.30;1.73;;;14.00;99.90;;;;;;5048556;28;20266;-70
2022/01/04 10:31:49;;;;;;;3.13;1.57;;;13.90;99.90;;;;;;5022769;28;20222;-70
2022/01/04 10:34:15;;;;;;;4.47;1.57;;;13.90;99.90;;;;;;5008675;28;20628;-70
2022/01/04 10:36:42;;;;;;;9.87;1.97;;;14.00;99.90;;;;;;5043312;28;20191;-71
2022/01/04 10:39:09;;;;;;;5.20;1.87;;;14.00;99.90;;;;;;5004966;28;22233;-70
2022/01/04 10:41:36;;;;;;;4.97;1.80;;;14.00;99.90;;;;;;5028249;28;20822;-71
2022/01/04 10:44:10;;;;;;;6.33;1.97;;;13.90;99.90;;;;;;5008590;28;20187;-70
2022/01/04 10:46:44;;;;;;;3.90;1.77;;;13.90;99.90;;;;;;5037311;28;20203;-71
2022/01/04 10:49:25;;;;;;;4.20;1.70;;;14.40;99.90;;;;;;5044249;28;20187;-70
2022/01/04 10:52:12;;;;;;;2.67;1.60;;;15.80;99.90;;;;;;5027472;28;20219;-71
2022/01/04 10:54:39;;;;;;;4.07;1.70;;;15.30;99.90;;;;;;5044955;28;20184;-71
2022/01/04 10:57:08;;;;;;;9.47;1.80;;;14.80;99.90;;;;;;5023255;28;20835;-71
2022/01/04 10:59:35;;;;;;;3.00;1.63;;;14.80;99.90;;;;;;5010429;28;20221;-70
2022/01/04 11:02:03;;;;;;;5.97;2.03;;;15.40;99.90;;;;;;5029449;28;20322;-70
2022/01/04 11:04:31;;;;;;;5.23;2.00;;;16.00;99.90;;;;;;5011144;28;20195;-70
2022/01/04 11:07:01;;;;;;;7.37;2.20;;;15.80;99.90;;;;;;5027856;28;20188;-71
2022/01/04 11:09:29;;;;;;;7.50;2.00;;;15.70;99.90;;;;;;5027065;28;20285;-70
2022/01/04 11:11:55;;;;;;;6.20;1.90;;;15.90;99.90;;;;;;5025640;28;20191;-70
2022/01/04 11:14:22;;;;;;;4.90;1.83;;;16.20;99.90;;;;;;5020758;28;20191;-70
2022/01/04 11:16:49;;;;;;;3.97;1.47;;;16.00;99.90;;;;;;5040490;28;20254;-70
2022/01/04 11:19:19;;;;;;;4.87;1.60;;;15.80;99.90;;;;;;5009949;28;20619;-69
2022/01/04 11:21:47;;;;;;;6.57;1.70;;;15.80;99.90;;;;;;5043923;28;20286;-69
2022/01/04 11:24:19;;;;;;;5.93;1.50;;;15.60;99.90;;;;;;5026702;28;20330;-69
2022/01/04 11:26:49;;;;;;;5.10;1.80;;;15.30;99.90;;;;;;5032348;28;20194;-70
2022/01/04 11:29:20;;;;;;;5.37;2.00;;;15.10;99.90;;;;;;5005359;28;20246;-68
2022/01/04 11:32:04;;;;;;;2.80;1.57;;;15.10;99.90;;;;;;5028830;28;20243;-70
2022/01/04 11:35:22;;;;;;;4.93;2.00;;;15.10;99.90;;;;;;5045742;28;20194;-69
2022/01/04 11:37:58;;;;;;;6.27;2.10;;;14.90;99.90;;;;;;5005738;28;20347;-70
2022/01/04 11:40:34;;;;;;;5.37;2.00;;;14.90;99.90;;;;;;5047303;28;20190;-71
2022/01/04 11:43:04;;;;;;;4.03;1.87;;;15.00;99.90;;;;;;5053140;28;20190;-69
2022/01/04 11:45:49;;;;;;;5.30;1.67;;;15.10;99.90;;;;;;5024014;28;20310;-71
2022/01/04 11:48:42;;;;;;;3.83;1.37;;;15.30;99.90;;;;;;5024390;28;20195;-69
2022/01/04 11:51:32;;;;;;;4.20;1.83;;;15.30;99.90;;;;;;5037778;28;20206;-69
2022/01/04 11:54:15;;;;;;;6.90;1.60;;;15.30;99.90;;;;;;5033613;28;20187;-69
2022/01/04 11:56:53;;;;;;;6.17;1.93;;;15.40;99.90;;;;;;5016491;28;20198;-69
2022/01/04 11:59:33;;;;;;;3.00;1.70;;;15.40;99.90;;;;;;5036218;28;20191;-69
2022/01/04 12:02:28;;;;;;;5.77;2.03;;;15.40;99.90;;;;;;5027216;28;20214;-68
2022/01/04 12:05:01;;;;;;;6.57;1.60;;;15.50;99.90;;;;;;5018118;28;20195;-68
2022/01/04 12:07:44;;;;;;;4.73;1.40;;;15.50;99.90;;;;;;5032395;28;20303;-69
2022/01/04 12:10:20;;;;;;;8.50;1.90;;;15.50;99.90;;;;;;5041219;28;20210;-70
2022/01/04 12:13:14;;;;;;;5.20;1.80;;;15.50;99.90;;;;;;5024518;28;20215;-71
2022/01/04 12:16:03;;;;;;;3.80;1.23;;;15.60;99.90;;;;;;5042516;28;20218;-70
2022/01/04 12:18:36;;;;;;;4.33;1.57;;;15.60;99.90;;;;;;5002357;28;20262;-69
2022/01/04 12:21:14;;;;;;;7.30;1.60;;;15.60;99.90;;;;;;5029246;28;20187;-70
2022/01/04 12:23:45;;;;;;;6.07;2.00;;;15.60;99.90;;;;;;5022773;28;20183;-70
2022/01/04 12:26:12;;;;;;;3.30;1.50;;;15.60;99.90;;;;;;5036618;28;20186;-70
2022/01/04 12:28:43;;;;;;;8.70;1.87;;;15.60;99.90;;;;;;5015238;28;20660;-70
2022/01/04 12:31:19;;;;;;;4.50;1.77;;;15.60;99.90;;;;;;5041546;28;20208;-69
2022/01/04 12:34:22;;;;;;;3.13;1.43;;;15.50;99.90;;;;;;5047390;28;20187;-69
2022/01/04 12:36:49;;;;;;;7.60;2.20;;;15.50;99.90;;;;;;5024998;28;20202;-70
2022/01/04 12:39:22;;;;;;;4.13;1.57;;;15.50;99.90;;;;;;5028320;28;20207;-69
2022/01/04 12:41:54;;;;;;;8.33;1.90;;;15.40;99.90;;;;;;5031830;28;20191;-70
2022/01/04 12:44:29;;;;;;;6.50;2.00;;;15.40;99.90;;;;;;5038084;28;20287;-71
2022/01/04 12:46:58;;;;;;;5.00;1.70;;;15.40;99.90;;;;;;5027624;28;20191;-68
2022/01/04 12:49:29;;;;;;;5.90;1.70;;;15.40;99.90;;;;;;5051459;28;20303;-69
2022/01/04 12:52:03;;;;;;;4.60;1.80;;;15.40;99.90;;;;;;5027063;28;20192;-68
2022/01/04 12:54:34;;;;;;;3.90;1.70;;;15.30;99.90;;;;;;5039649;28;20186;-69
2022/01/04 12:57:11;;;;;;;5.23;1.80;;;15.30;99.90;;;;;;5034116;28;20211;-69
2022/01/04 12:59:53;;;;;;;4.03;1.60;;;15.30;99.90;;;;;;5033797;28;20187;-71
2022/01/04 13:02:25;;;;;;;4.50;1.90;;;15.20;99.90;;;;;;5055325;28;20226;-68
2022/01/04 13:05:20;;;;;;;6.37;1.67;;;15.10;99.90;;;;;;5008169;28;20219;-70
2022/01/04 13:07:46;;;;;;;6.77;2.07;;;14.90;99.90;;;;;;5009507;28;20203;-69